Time;durP1;ratioP1;P1;durP2;ratioP2;P2;SDS_P1;SDS_P2;PMS_P1;PMS_P2;Temp;Humidity;BMP_temperature;BMP_pressure;BME280_temperature;BME280_humidity;BME280_pressure;Samples;Min_cycle;Max_cycle;Signal;HPM_P1;HPM_P2
2023/05/02 00:01:30;;;;;;;3.13;1.80;;;13.70;99.90;;;;;;5116453;27;20456;-63
2023/05/02 00:03:57;;;;;;;4.57;2.55;;;13.70;99.90;;;;;;5117368;28;20035;-63
2023/05/02 00:06:24;;;;;;;3.85;2.20;;;13.70;99.90;;;;;;5116976;28;20436;-63
2023/05/02 00:08:51;;;;;;;4.80;2.50;;;13.70;99.90;;;;;;5116716;28;20032;-63
2023/05/02 00:11:18;;;;;;;3.72;2.30;;;13.70;99.90;;;;;;5117006;28;20043;-62
2023/05/02 00:13:45;;;;;;;3.95;2.33;;;13.60;99.90;;;;;;5116969;28;20036;-62
2023/05/02 00:16:11;;;;;;;3.42;2.28;;;13.60;99.90;;;;;;5116461;28;20050;-62
2023/05/02 00:18:38;;;;;;;5.43;2.20;;;13.50;99.90;;;;;;5116373;28;20440;-63
2023/05/02 00:21:06;;;;;;;5.88;2.10;;;13.60;99.90;;;;;;5116409;28;20067;-62
2023/05/02 00:23:32;;;;;;;3.65;2.00;;;13.60;99.90;;;;;;5116552;28;20066;-63
2023/05/02 00:25:59;;;;;;;3.47;1.98;;;13.60;99.90;;;;;;5116363;28;20042;-62
2023/05/02 00:28:26;;;;;;;5.05;2.08;;;13.60;99.90;;;;;;5115373;28;20376;-62
2023/05/02 00:30:53;;;;;;;5.07;2.35;;;13.60;99.90;;;;;;5114951;28;20071;-62
2023/05/02 00:33:19;;;;;;;3.50;2.15;;;13.60;99.90;;;;;;5116045;27;20043;-63
2023/05/02 00:35:46;;;;;;;5.03;2.50;;;13.60;99.90;;;;;;5114782;28;20482;-62
2023/05/02 00:38:13;;;;;;;3.22;2.30;;;13.60;99.90;;;;;;5115982;28;20035;-62
2023/05/02 00:40:40;;;;;;;3.95;2.42;;;13.60;99.90;;;;;;5116242;28;20035;-63
2023/05/02 00:43:06;;;;;;;4.07;2.50;;;13.50;99.90;;;;;;5114780;28;20044;-63
2023/05/02 00:45:33;;;;;;;3.97;2.50;;;13.50;99.90;;;;;;5116407;27;20039;-62
2023/05/02 00:48:00;;;;;;;4.28;2.67;;;13.40;99.90;;;;;;5114631;28;20040;-63
2023/05/02 00:50:27;;;;;;;3.78;2.70;;;13.40;99.90;;;;;;5114205;28;20047;-62
2023/05/02 00:52:54;;;;;;;4.93;2.80;;;13.40;99.90;;;;;;5114443;28;20047;-62
2023/05/02 00:55:20;;;;;;;4.53;2.70;;;13.30;99.90;;;;;;5115573;28;20039;-63
2023/05/02 00:57:48;;;;;;;6.57;2.55;;;13.20;99.90;;;;;;5114732;28;20048;-63
2023/05/02 01:00:15;;;;;;;5.55;2.70;;;13.20;99.90;;;;;;5114020;28;20066;-63
2023/05/02 01:02:42;;;;;;;4.25;2.65;;;13.10;99.90;;;;;;5115404;28;20188;-62
2023/05/02 01:05:09;;;;;;;3.78;2.58;;;13.00;99.90;;;;;;5116004;28;20032;-63
2023/05/02 01:07:36;;;;;;;3.85;2.63;;;13.00;99.90;;;;;;5115674;28;20077;-62
2023/05/02 01:10:03;;;;;;;4.45;2.58;;;12.90;99.90;;;;;;5113015;28;20048;-63
2023/05/02 01:12:30;;;;;;;4.90;3.20;;;12.90;99.90;;;;;;5115127;28;20051;-63
2023/05/02 01:14:56;;;;;;;6.47;3.10;;;12.80;99.90;;;;;;5115457;28;20122;-63
2023/05/02 01:17:23;;;;;;;5.95;3.17;;;12.80;99.90;;;;;;5115422;28;20039;-63
2023/05/02 01:19:50;;;;;;;4.45;3.15;;;12.70;99.90;;;;;;5113832;28;20085;-63
2023/05/02 01:22:18;;;;;;;5.75;3.65;;;12.70;99.90;;;;;;5115127;28;20486;-62
2023/05/02 01:24:45;;;;;;;5.82;3.55;;;12.70;99.90;;;;;;5113781;28;20535;-62
2023/05/02 01:27:12;;;;;;;5.80;3.90;;;12.70;99.90;;;;;;5115552;28;20040;-62
2023/05/02 01:29:39;;;;;;;5.70;4.00;;;12.70;99.90;;;;;;5115017;28;20117;-62
2023/05/02 01:32:06;;;;;;;7.90;4.63;;;12.60;99.90;;;;;;5115290;28;20039;-62
2023/05/02 01:34:33;;;;;;;6.22;4.47;;;12.60;99.90;;;;;;5115462;28;20048;-62
2023/05/02 01:36:59;;;;;;;5.65;4.50;;;12.60;99.90;;;;;;5114155;28;20047;-62
2023/05/02 01:39:26;;;;;;;6.65;4.50;;;12.50;99.90;;;;;;5114092;28;20450;-63
2023/05/02 01:41:53;;;;;;;6.72;4.75;;;12.50;99.90;;;;;;5113716;28;20047;-61
2023/05/02 01:44:20;;;;;;;6.28;4.22;;;12.50;99.90;;;;;;5114063;28;20043;-61
2023/05/02 01:46:47;;;;;;;6.50;4.68;;;12.50;99.90;;;;;;5113568;28;20096;-61
2023/05/02 01:49:14;;;;;;;6.60;4.90;;;12.50;99.90;;;;;;5115123;28;20092;-61
2023/05/02 01:51:41;;;;;;;8.52;4.68;;;12.60;99.90;;;;;;5114615;28;20040;-61
2023/05/02 01:54:08;;;;;;;9.02;4.57;;;12.60;99.90;;;;;;5115046;27;20085;-61
2023/05/02 01:56:35;;;;;;;5.53;4.63;;;12.70;99.90;;;;;;5113105;28;20048;-62
2023/05/02 01:59:01;;;;;;;7.07;4.47;;;12.60;99.90;;;;;;5113159;28;20043;-62
2023/05/02 02:01:29;;;;;;;5.32;4.50;;;12.50;99.90;;;;;;5113308;28;20100;-62
2023/05/02 02:03:56;;;;;;;6.50;4.50;;;12.60;99.90;;;;;;5114441;28;20044;-62
2023/05/02 02:06:23;;;;;;;7.40;6.03;;;12.60;99.90;;;;;;5114253;28;20043;-62
2023/05/02 02:08:50;;;;;;;8.55;6.70;;;12.60;99.90;;;;;;5113259;28;20043;-62
2023/05/02 02:11:17;;;;;;;8.13;7.18;;;12.60;99.90;;;;;;5112820;28;20502;-61
2023/05/02 02:13:43;;;;;;;10.40;7.63;;;12.50;99.90;;;;;;5114685;28;20041;-62
2023/05/02 02:16:10;;;;;;;9.10;7.60;;;12.50;99.90;;;;;;5114473;28;20471;-60
2023/05/02 02:18:37;;;;;;;7.95;6.72;;;12.50;99.90;;;;;;5114223;28;20100;-61
2023/05/02 02:21:04;;;;;;;9.60;7.43;;;12.50;99.90;;;;;;5114277;28;20035;-61
2023/05/02 02:23:30;;;;;;;9.98;8.30;;;12.50;99.90;;;;;;5112934;28;20078;-61
2023/05/02 02:25:57;;;;;;;11.95;7.57;;;12.50;99.90;;;;;;5114011;28;20031;-61
2023/05/02 02:28:24;;;;;;;9.27;7.90;;;12.50;99.90;;;;;;5113872;28;20063;-61
2023/05/02 02:30:51;;;;;;;11.65;7.72;;;12.60;99.90;;;;;;5112456;28;20051;-61
2023/05/02 02:33:17;;;;;;;11.30;8.68;;;12.50;99.90;;;;;;5112957;28;20115;-61
2023/05/02 02:35:44;;;;;;;10.18;8.45;;;12.60;99.90;;;;;;5113894;28;20065;-62
2023/05/02 02:38:11;;;;;;;11.93;9.30;;;12.50;99.90;;;;;;5113305;28;20043;-62
2023/05/02 02:40:38;;;;;;;11.90;8.88;;;12.50;99.90;;;;;;5112450;28;20047;-61
2023/05/02 02:43:04;;;;;;;11.18;8.30;;;12.50;99.90;;;;;;5114218;28;20071;-61
2023/05/02 02:45:31;;;;;;;11.80;9.10;;;12.50;99.90;;;;;;5114283;28;20044;-62
2023/05/02 02:47:58;;;;;;;11.55;8.85;;;12.60;99.90;;;;;;5112886;28;20039;-61
2023/05/02 02:50:26;;;;;;;15.57;8.88;;;12.60;99.90;;;;;;5113719;28;20561;-62
2023/05/02 02:52:52;;;;;;;13.30;8.80;;;12.60;99.90;;;;;;5095663;28;20039;-61
2023/05/02 02:55:19;;;;;;;12.93;9.55;;;12.60;99.90;;;;;;5112594;28;20064;-61
2023/05/02 02:57:46;;;;;;;13.13;9.63;;;12.60;99.90;;;;;;5113912;28;20408;-61
2023/05/02 03:00:13;;;;;;;13.23;10.27;;;12.60;99.90;;;;;;5113720;28;20039;-61
2023/05/02 03:02:39;;;;;;;15.07;10.30;;;12.60;99.90;;;;;;5113505;28;20040;-62
2023/05/02 03:05:06;;;;;;;13.98;10.88;;;12.70;99.90;;;;;;5113685;28;20127;-62
2023/05/02 03:07:33;;;;;;;17.13;12.27;;;12.70;99.90;;;;;;5112441;28;20374;-62
2023/05/02 03:10:01;;;;;;;17.85;12.93;;;12.70;99.90;;;;;;5112734;28;20460;-61
2023/05/02 03:12:28;;;;;;;15.90;12.88;;;12.70;99.90;;;;;;5112626;28;20036;-61
2023/05/02 03:14:56;;;;;;;20.65;14.32;;;12.60;99.90;;;;;;5112481;28;20046;-61
2023/05/02 03:17:22;;;;;;;17.63;13.60;;;12.70;99.90;;;;;;5112197;28;20070;-62
2023/05/02 03:19:52;;;;;;;15.32;12.57;;;12.60;99.90;;;;;;5113352;28;20044;-61
2023/05/02 03:22:19;;;;;;;17.58;13.73;;;12.70;99.90;;;;;;5114004;28;20517;-61
2023/05/02 03:24:46;;;;;;;18.25;13.30;;;12.70;99.90;;;;;;5112640;28;20039;-62
2023/05/02 03:27:13;;;;;;;17.58;12.80;;;12.70;99.90;;;;;;5112511;28;20039;-61
2023/05/02 03:29:41;;;;;;;16.88;12.95;;;12.70;99.90;;;;;;5112529;28;20044;-61
2023/05/02 03:32:10;;;;;;;17.83;13.60;;;12.70;99.90;;;;;;5112666;28;20051;-62
2023/05/02 03:34:38;;;;;;;20.48;13.10;;;12.80;99.90;;;;;;5115066;28;20047;-61
2023/05/02 03:37:06;;;;;;;16.25;12.73;;;12.80;99.90;;;;;;5115931;28;20047;-61
2023/05/02 03:39:33;;;;;;;17.75;13.95;;;12.80;99.90;;;;;;5116188;28;20439;-61
2023/05/02 03:42:01;;;;;;;18.38;13.57;;;12.70;99.90;;;;;;5099137;28;20039;-62
2023/05/02 03:44:28;;;;;;;18.00;13.45;;;12.70;99.90;;;;;;5098797;28;20036;-61
2023/05/02 03:46:55;;;;;;;20.05;13.60;;;12.70;99.90;;;;;;5115836;28;20386;-61
2023/05/02 03:49:23;;;;;;;19.75;14.35;;;12.60;99.90;;;;;;5115542;28;20081;-61
2023/05/02 03:51:52;;;;;;;17.00;13.45;;;12.60;99.90;;;;;;5115738;28;20096;-62
2023/05/02 03:54:24;;;;;;;18.83;14.73;;;12.60;99.90;;;;;;5115809;28;20431;-62
2023/05/02 03:56:53;;;;;;;16.80;14.15;;;12.70;99.90;;;;;;5116079;28;20498;-61
2023/05/02 03:59:26;;;;;;;17.83;14.38;;;12.70;99.90;;;;;;5115676;28;20105;-62
2023/05/02 04:01:54;;;;;;;19.08;14.75;;;12.70;99.90;;;;;;5115098;28;20440;-62
2023/05/02 04:04:28;;;;;;;18.00;14.57;;;12.70;99.90;;;;;;5115387;28;20044;-64
2023/05/02 04:06:55;;;;;;;21.83;14.63;;;12.70;99.90;;;;;;5117037;28;20039;-61
2023/05/02 04:09:24;;;;;;;18.83;15.80;;;12.70;99.90;;;;;;5115350;28;20042;-61
2023/05/02 04:11:58;;;;;;;21.95;15.85;;;12.70;99.90;;;;;;5115440;28;20043;-63
2023/05/02 04:14:26;;;;;;;19.98;15.52;;;12.80;99.90;;;;;;5116532;28;20062;-61
2023/05/02 04:16:54;;;;;;;20.38;15.77;;;12.80;99.90;;;;;;5115028;28;20490;-61
2023/05/02 04:19:36;;;;;;;19.73;15.35;;;12.70;99.90;;;;;;5114937;28;20445;-61
2023/05/02 04:22:04;;;;;;;18.85;15.43;;;12.70;99.90;;;;;;5114999;28;20093;-61
2023/05/02 04:24:35;;;;;;;20.55;16.05;;;12.70;99.90;;;;;;5114958;28;20040;-62
2023/05/02 04:27:01;;;;;;;19.67;15.85;;;12.70;99.90;;;;;;5114955;28;20050;-61
2023/05/02 04:29:28;;;;;;;21.02;17.10;;;12.70;99.90;;;;;;5114829;28;20040;-60
2023/05/02 04:31:55;;;;;;;18.85;15.93;;;12.70;99.90;;;;;;5115221;28;20542;-60
2023/05/02 04:34:26;;;;;;;18.17;15.25;;;12.70;99.90;;;;;;5115236;28;20047;-61
2023/05/02 04:36:53;;;;;;;20.05;15.75;;;12.70;99.90;;;;;;5115537;28;20116;-60
2023/05/02 04:39:22;;;;;;;21.40;15.15;;;12.60;99.90;;;;;;5114660;28;20429;-61
2023/05/02 04:42:02;;;;;;;20.10;15.23;;;12.60;99.90;;;;;;5114829;28;20391;-62
2023/05/02 04:44:33;;;;;;;18.98;14.95;;;12.60;99.90;;;;;;5114612;28;20208;-61
2023/05/02 04:47:00;;;;;;;17.20;13.93;;;12.60;99.90;;;;;;5115209;28;20454;-62
2023/05/02 04:49:27;;;;;;;20.55;13.77;;;12.50;99.90;;;;;;5116335;28;20088;-62
2023/05/02 04:51:54;;;;;;;16.52;12.65;;;12.50;99.90;;;;;;5114435;28;20051;-61
2023/05/02 04:54:22;;;;;;;16.98;11.98;;;12.50;99.90;;;;;;5114638;28;20045;-62
2023/05/02 04:56:49;;;;;;;13.93;11.05;;;12.40;99.90;;;;;;5115758;28;20050;-61
2023/05/02 04:59:16;;;;;;;13.52;11.63;;;12.40;99.90;;;;;;5114210;28;20035;-61
2023/05/02 05:01:44;;;;;;;16.52;11.00;;;12.40;99.90;;;;;;5114628;28;20071;-62
2023/05/02 05:04:10;;;;;;;12.77;10.10;;;12.40;99.90;;;;;;5114160;28;20093;-61
2023/05/02 05:06:37;;;;;;;13.40;9.63;;;12.40;99.90;;;;;;5114184;28;20044;-61
2023/05/02 05:09:05;;;;;;;12.30;8.13;;;12.40;99.90;;;;;;5115898;28;20044;-61
2023/05/02 05:11:33;;;;;;;9.07;6.78;;;12.30;99.90;;;;;;5114456;28;20059;-61
2023/05/02 05:14:02;;;;;;;10.15;7.38;;;12.20;99.90;;;;;;5115724;28;20042;-61
2023/05/02 05:16:32;;;;;;;8.80;5.65;;;12.20;99.90;;;;;;5114062;28;20044;-62
2023/05/02 05:18:59;;;;;;;8.88;6.28;;;12.20;99.90;;;;;;5114345;28;20558;-62
2023/05/02 05:21:26;;;;;;;7.35;4.95;;;12.10;99.90;;;;;;5114035;28;20067;-62
2023/05/02 05:23:54;;;;;;;9.85;5.57;;;12.00;99.90;;;;;;5097605;28;20039;-61
2023/05/02 05:26:25;;;;;;;7.60;5.63;;;12.00;99.90;;;;;;5114145;28;20067;-62
2023/05/02 05:28:53;;;;;;;7.40;5.40;;;12.00;99.90;;;;;;5114148;28;20421;-63
2023/05/02 05:31:23;;;;;;;8.35;4.68;;;12.00;99.90;;;;;;5113676;28;20039;-62
2023/05/02 05:33:53;;;;;;;5.88;4.65;;;12.00;99.90;;;;;;5113878;28;20119;-63
2023/05/02 05:36:21;;;;;;;9.57;4.60;;;11.90;99.90;;;;;;5097059;28;20082;-62
2023/05/02 05:38:50;;;;;;;6.90;4.38;;;11.90;99.90;;;;;;5097331;28;20047;-61
2023/05/02 05:41:17;;;;;;;7.65;4.47;;;11.80;99.90;;;;;;5113299;28;20486;-61
2023/05/02 05:43:48;;;;;;;8.48;4.18;;;11.90;99.90;;;;;;5113973;28;20127;-60
2023/05/02 05:46:14;;;;;;;8.55;4.80;;;11.90;99.90;;;;;;5113400;28;20454;-61
2023/05/02 05:48:41;;;;;;;7.13;4.10;;;11.90;99.90;;;;;;5114860;28;20067;-62
2023/05/02 05:51:09;;;;;;;7.35;3.85;;;11.90;99.90;;;;;;5113725;28;20460;-62
2023/05/02 05:53:36;;;;;;;9.60;3.80;;;11.90;99.90;;;;;;5113874;28;20040;-61
2023/05/02 05:56:05;;;;;;;7.75;3.95;;;11.80;99.90;;;;;;5112817;28;20051;-61
2023/05/02 05:58:32;;;;;;;5.50;3.78;;;11.80;99.90;;;;;;5114536;28;20035;-61
2023/05/02 06:00:59;;;;;;;9.85;4.20;;;11.80;99.90;;;;;;5113022;28;20062;-63
2023/05/02 06:03:26;;;;;;;7.55;4.05;;;11.70;99.90;;;;;;5114397;28;20066;-61
2023/05/02 06:05:53;;;;;;;5.43;3.42;;;11.70;99.90;;;;;;5113641;28;20066;-62
2023/05/02 06:08:21;;;;;;;8.30;3.55;;;11.80;99.90;;;;;;5114473;28;20539;-61
2023/05/02 06:10:48;;;;;;;7.45;3.63;;;11.80;99.90;;;;;;5113193;28;20509;-61
2023/05/02 06:13:15;;;;;;;5.93;3.75;;;11.80;99.90;;;;;;5114572;28;20558;-61
2023/05/02 06:15:43;;;;;;;9.07;3.92;;;11.80;99.90;;;;;;5113413;28;20051;-60
2023/05/02 06:18:10;;;;;;;5.70;3.85;;;11.90;99.90;;;;;;5114425;28;20032;-62
2023/05/02 06:20:37;;;;;;;10.40;4.05;;;11.90;99.90;;;;;;5112944;28;20474;-63
2023/05/02 06:23:03;;;;;;;7.05;3.88;;;11.90;99.90;;;;;;5112771;28;20036;-60
2023/05/02 06:25:32;;;;;;;8.63;3.92;;;11.90;99.90;;;;;;5114004;28;20036;-61
2023/05/02 06:27:59;;;;;;;7.85;4.00;;;11.80;99.90;;;;;;5114034;28;20035;-61
2023/05/02 06:30:26;;;;;;;8.05;4.13;;;11.80;99.90;;;;;;5114224;28;20040;-61
2023/05/02 06:32:52;;;;;;;5.93;3.88;;;11.80;99.90;;;;;;5114198;28;20051;-62
2023/05/02 06:35:19;;;;;;;6.47;4.63;;;11.90;99.90;;;;;;5114080;28;20046;-61
2023/05/02 06:37:46;;;;;;;8.25;5.20;;;11.90;99.90;;;;;;5113907;28;20044;-62
2023/05/02 06:40:13;;;;;;;9.68;5.50;;;11.90;99.90;;;;;;5114230;28;20497;-61
2023/05/02 06:42:40;;;;;;;9.55;5.55;;;11.90;99.90;;;;;;5113864;28;20118;-61
2023/05/02 06:45:06;;;;;;;10.38;5.07;;;12.00;99.90;;;;;;5113816;28;20040;-60
2023/05/02 06:47:33;;;;;;;11.10;5.68;;;12.00;99.90;;;;;;5114287;28;20118;-59
2023/05/02 06:50:00;;;;;;;9.52;5.47;;;12.00;99.90;;;;;;5114203;28;20042;-61
2023/05/02 06:52:27;;;;;;;11.82;5.70;;;12.00;99.90;;;;;;5113732;28;20090;-60
2023/05/02 06:54:54;;;;;;;11.00;5.25;;;12.00;99.90;;;;;;5113797;28;20036;-60
2023/05/02 06:57:20;;;;;;;9.93;5.00;;;12.00;99.90;;;;;;5113554;28;20482;-60
2023/05/02 06:59:47;;;;;;;11.85;5.63;;;12.10;99.90;;;;;;5113882;28;20328;-61
2023/05/02 07:02:14;;;;;;;10.18;5.40;;;12.10;99.90;;;;;;5112295;28;20044;-62
2023/05/02 07:04:41;;;;;;;8.68;5.22;;;12.10;99.90;;;;;;5113882;28;20031;-61
2023/05/02 07:07:08;;;;;;;11.25;5.57;;;12.00;99.90;;;;;;5114203;28;20042;-61
2023/05/02 07:09:35;;;;;;;14.73;9.40;;;12.10;99.90;;;;;;5116067;28;20044;-61
2023/05/02 07:12:02;;;;;;;10.98;6.25;;;12.10;99.90;;;;;;5118101;27;20429;-61
2023/05/02 07:14:32;;;;;;;11.95;5.57;;;12.10;99.90;;;;;;5116293;28;20435;-62
2023/05/02 07:16:59;;;;;;;10.50;5.90;;;12.10;99.90;;;;;;5117749;28;20067;-61
2023/05/02 07:19:26;;;;;;;14.02;5.68;;;12.10;99.90;;;;;;5118111;28;20386;-61
2023/05/02 07:21:52;;;;;;;14.80;5.82;;;12.10;99.90;;;;;;5117949;28;20046;-61
2023/05/02 07:24:19;;;;;;;9.95;5.45;;;12.20;99.90;;;;;;5117497;28;20054;-61
2023/05/02 07:26:46;;;;;;;13.25;5.45;;;12.30;99.90;;;;;;5117452;28;20063;-61
2023/05/02 07:29:13;;;;;;;10.77;4.85;;;12.30;99.90;;;;;;5117361;28;20049;-61
2023/05/02 07:31:39;;;;;;;10.65;4.75;;;12.30;99.90;;;;;;5117728;28;20067;-62
2023/05/02 07:34:06;;;;;;;14.20;5.68;;;12.30;99.90;;;;;;5117014;28;20521;-61
2023/05/02 07:36:33;;;;;;;13.43;5.05;;;12.20;99.90;;;;;;5117492;27;20071;-61
2023/05/02 07:39:00;;;;;;;11.43;5.70;;;12.20;99.90;;;;;;5117468;28;20043;-61
2023/05/02 07:41:26;;;;;;;14.05;7.00;;;12.20;99.90;;;;;;5116711;28;20467;-61
2023/05/02 07:43:53;;;;;;;11.23;5.80;;;12.30;99.90;;;;;;5117484;28;20433;-65
2023/05/02 07:46:20;;;;;;;13.73;5.72;;;12.30;99.90;;;;;;5116806;28;20081;-62
2023/05/02 07:48:47;;;;;;;14.48;6.35;;;12.30;99.90;;;;;;5117413;28;20031;-61
2023/05/02 07:51:14;;;;;;;12.05;5.80;;;12.40;99.90;;;;;;5115584;28;20062;-63
2023/05/02 07:53:40;;;;;;;16.52;5.80;;;12.40;99.90;;;;;;5116589;27;20035;-61
2023/05/02 07:56:07;;;;;;;15.20;5.47;;;12.50;99.90;;;;;;5117017;28;20058;-61
2023/05/02 07:58:35;;;;;;;17.67;6.07;;;12.50;99.90;;;;;;5117370;28;20043;-61
2023/05/02 08:01:02;;;;;;;15.43;5.60;;;12.50;99.90;;;;;;5114874;28;20406;-61
2023/05/02 08:03:29;;;;;;;16.25;5.03;;;12.50;99.90;;;;;;5115185;27;20044;-61
2023/05/02 08:05:56;;;;;;;14.52;5.05;;;12.50;99.90;;;;;;5115481;28;20730;-61
2023/05/02 08:08:23;;;;;;;14.13;5.03;;;12.50;99.90;;;;;;5115473;28;20163;-60
2023/05/02 08:10:50;;;;;;;18.95;5.20;;;12.60;99.90;;;;;;5115413;28;20498;-60
2023/05/02 08:13:17;;;;;;;14.68;4.00;;;12.60;99.90;;;;;;5114214;28;20048;-62
2023/05/02 08:15:43;;;;;;;19.33;4.55;;;12.60;99.90;;;;;;5115802;28;20122;-62
2023/05/02 08:18:10;;;;;;;21.98;4.47;;;12.50;99.90;;;;;;5117032;28;20047;-61
2023/05/02 08:20:37;;;;;;;15.63;4.30;;;12.60;99.90;;;;;;5116215;28;20458;-61
2023/05/02 08:23:04;;;;;;;13.70;4.30;;;12.60;99.90;;;;;;5116463;28;20444;-63
2023/05/02 08:25:31;;;;;;;12.77;3.20;;;12.60;99.90;;;;;;5116663;28;20482;-62
2023/05/02 08:27:58;;;;;;;12.02;3.05;;;12.60;99.90;;;;;;5116440;28;20463;-62
2023/05/02 08:30:24;;;;;;;16.17;3.35;;;12.70;99.90;;;;;;5116224;28;20042;-61
2023/05/02 08:32:51;;;;;;;13.32;3.63;;;12.80;99.90;;;;;;5116314;28;20047;-61
2023/05/02 08:35:18;;;;;;;11.20;2.78;;;12.90;99.90;;;;;;5116621;27;20036;-62
2023/05/02 08:37:45;;;;;;;11.23;2.70;;;12.90;99.90;;;;;;5116585;27;20048;-62
2023/05/02 08:40:12;;;;;;;9.30;2.17;;;12.90;99.90;;;;;;5116282;28;20044;-61
2023/05/02 08:42:38;;;;;;;10.20;2.13;;;13.00;99.90;;;;;;5116550;28;20036;-61
2023/05/02 08:45:05;;;;;;;14.52;2.35;;;13.10;99.90;;;;;;5116323;27;20063;-63
2023/05/02 08:47:32;;;;;;;12.02;2.25;;;13.10;99.90;;;;;;5115942;28;20039;-61
2023/05/02 08:49:59;;;;;;;8.43;2.58;;;13.20;99.90;;;;;;5115844;28;20533;-61
2023/05/02 08:52:26;;;;;;;8.57;2.10;;;13.20;99.90;;;;;;5115807;28;20097;-62
2023/05/02 08:54:53;;;;;;;14.15;2.95;;;13.20;99.90;;;;;;5115968;27;20067;-62
2023/05/02 08:57:20;;;;;;;9.25;2.50;;;13.10;99.90;;;;;;5115676;28;20051;-62
2023/05/02 08:59:47;;;;;;;11.73;2.90;;;13.10;99.90;;;;;;5116135;28;20122;-62
2023/05/02 09:02:14;;;;;;;11.85;3.00;;;13.10;99.90;;;;;;5115436;28;20055;-62
2023/05/02 09:04:41;;;;;;;11.90;2.30;;;13.20;99.90;;;;;;5115567;28;20035;-61
2023/05/02 09:07:09;;;;;;;12.23;2.60;;;13.30;99.90;;;;;;5115572;28;20035;-62
2023/05/02 09:09:36;;;;;;;10.20;2.25;;;13.30;99.90;;;;;;5115380;28;20088;-62
2023/05/02 09:12:03;;;;;;;13.60;2.63;;;13.30;99.90;;;;;;5115624;28;20494;-61
2023/05/02 09:14:30;;;;;;;13.13;2.50;;;13.40;99.90;;;;;;5115543;28;20047;-62
2023/05/02 09:16:56;;;;;;;13.73;2.45;;;13.50;99.90;;;;;;5115372;28;20051;-61
2023/05/02 09:19:24;;;;;;;12.70;2.95;;;13.60;99.90;;;;;;5115200;28;20114;-61
2023/05/02 09:21:51;;;;;;;8.13;2.25;;;13.50;99.90;;;;;;5115607;28;20100;-61
2023/05/02 09:24:18;;;;;;;9.45;2.30;;;13.50;99.90;;;;;;5115504;28;20042;-62
2023/05/02 09:26:45;;;;;;;7.45;2.28;;;13.50;99.90;;;;;;5115731;28;20053;-62
2023/05/02 09:29:12;;;;;;;10.25;2.50;;;13.50;99.90;;;;;;5115330;28;20046;-61
2023/05/02 09:31:40;;;;;;;14.20;2.80;;;13.50;99.90;;;;;;5114375;28;20126;-61
2023/05/02 09:34:10;;;;;;;6.95;2.20;;;13.60;99.90;;;;;;5113884;28;20096;-62
2023/05/02 09:36:37;;;;;;;10.15;2.47;;;13.80;99.90;;;;;;5115560;28;20042;-62
2023/05/02 09:39:03;;;;;;;7.72;2.17;;;13.90;99.90;;;;;;5114183;28;20066;-61
2023/05/02 09:41:30;;;;;;;8.75;2.13;;;13.90;99.90;;;;;;5114821;28;20083;-62
2023/05/02 09:43:57;;;;;;;6.65;1.95;;;14.10;99.90;;;;;;5115085;28;20039;-62
2023/05/02 09:46:24;;;;;;;10.52;2.30;;;14.10;99.90;;;;;;5115329;28;20468;-62
2023/05/02 09:48:51;;;;;;;9.88;2.20;;;14.10;99.90;;;;;;5115251;28;20040;-62
2023/05/02 09:51:17;;;;;;;7.95;2.30;;;14.20;99.90;;;;;;5114645;28;20035;-61
2023/05/02 09:53:44;;;;;;;9.43;3.40;;;14.30;99.90;;;;;;5113469;28;20096;-62
2023/05/02 09:56:11;;;;;;;10.95;2.45;;;14.30;99.90;;;;;;5114647;28;20505;-62
2023/05/02 09:58:38;;;;;;;8.65;2.38;;;14.40;99.90;;;;;;5114884;28;20390;-63
2023/05/02 10:01:05;;;;;;;9.15;2.58;;;14.50;99.90;;;;;;5114769;28;20101;-62
2023/05/02 10:03:31;;;;;;;10.32;2.88;;;14.50;99.90;;;;;;5114690;28;20549;-62
2023/05/02 10:05:58;;;;;;;13.80;3.08;;;14.40;99.90;;;;;;5115065;28;20530;-62
2023/05/02 10:08:28;;;;;;;8.80;2.58;;;14.40;99.90;;;;;;5115040;28;20046;-61
2023/05/02 10:10:55;;;;;;;9.98;2.63;;;14.50;99.90;;;;;;5114268;28;20062;-63
2023/05/02 10:13:23;;;;;;;10.50;2.35;;;14.60;99.90;;;;;;5114779;28;20036;-62
2023/05/02 10:15:50;;;;;;;13.55;3.33;;;14.70;99.90;;;;;;5114974;28;20043;-63
2023/05/02 10:18:16;;;;;;;7.68;2.30;;;14.80;99.90;;;;;;5114984;28;20052;-62
2023/05/02 10:20:43;;;;;;;10.65;2.50;;;14.90;99.90;;;;;;5114811;28;20045;-62
2023/05/02 10:23:10;;;;;;;9.98;2.33;;;15.10;99.90;;;;;;5114063;28;20048;-61
2023/05/02 10:25:37;;;;;;;10.93;2.20;;;15.20;99.90;;;;;;5114203;28;20383;-62
2023/05/02 10:28:04;;;;;;;10.25;2.58;;;15.30;99.90;;;;;;5114409;28;20462;-62
2023/05/02 10:30:30;;;;;;;10.18;2.25;;;15.50;99.90;;;;;;5113250;28;20081;-63
2023/05/02 10:32:57;;;;;;;9.15;2.22;;;15.50;99.90;;;;;;5114480;27;20440;-61
2023/05/02 10:35:25;;;;;;;7.90;2.20;;;15.40;99.90;;;;;;5114442;28;20439;-61
2023/05/02 10:37:52;;;;;;;9.75;2.05;;;15.50;99.90;;;;;;5114615;28;20055;-61
2023/05/02 10:40:18;;;;;;;8.75;2.60;;;15.60;99.90;;;;;;5114114;28;20031;-61
2023/05/02 10:42:45;;;;;;;9.95;2.28;;;15.90;99.90;;;;;;5114286;28;20463;-62
2023/05/02 10:45:13;;;;;;;9.77;2.10;;;15.90;99.90;;;;;;5114480;28;20397;-62
2023/05/02 10:47:40;;;;;;;10.93;2.40;;;16.00;99.90;;;;;;5113213;28;20055;-63
2023/05/02 10:50:07;;;;;;;6.88;2.10;;;16.10;99.90;;;;;;5114146;28;20055;-61
2023/05/02 10:52:34;;;;;;;7.97;1.88;;;16.30;99.60;;;;;;5113836;28;20047;-63
2023/05/02 10:55:01;;;;;;;13.27;2.65;;;16.30;99.30;;;;;;5113885;28;20043;-62
2023/05/02 10:57:27;;;;;;;8.32;2.42;;;16.40;99.40;;;;;;5114070;28;20403;-62
2023/05/02 10:59:54;;;;;;;6.88;2.17;;;16.40;98.90;;;;;;5114352;28;20115;-62
2023/05/02 11:02:24;;;;;;;8.75;2.58;;;16.40;99.10;;;;;;5113727;28;20104;-63
2023/05/02 11:04:51;;;;;;;11.43;2.85;;;16.40;99.30;;;;;;5112273;28;20561;-62
2023/05/02 11:07:18;;;;;;;9.77;2.20;;;16.60;99.20;;;;;;5113919;28;20122;-62
2023/05/02 11:09:45;;;;;;;11.70;2.53;;;16.50;99.00;;;;;;5113962;28;20379;-62
2023/05/02 11:12:12;;;;;;;11.35;2.95;;;16.50;99.10;;;;;;5114068;28;20063;-63
2023/05/02 11:14:39;;;;;;;12.50;2.53;;;16.60;99.20;;;;;;5113728;28;20040;-63
2023/05/02 11:17:05;;;;;;;10.35;2.70;;;16.70;98.80;;;;;;5114044;28;20536;-59
2023/05/02 11:19:33;;;;;;;8.30;2.20;;;16.60;98.80;;;;;;5114272;28;20497;-62
2023/05/02 11:21:59;;;;;;;8.77;2.30;;;16.70;98.50;;;;;;5113817;28;20040;-62
2023/05/02 11:24:26;;;;;;;9.13;2.15;;;16.70;98.60;;;;;;5113669;28;20069;-62
2023/05/02 11:26:54;;;;;;;9.13;2.00;;;16.70;98.40;;;;;;5112509;28;20040;-62
2023/05/02 11:29:21;;;;;;;9.48;2.08;;;16.60;98.10;;;;;;5114161;28;20044;-63
2023/05/02 11:31:47;;;;;;;11.27;2.70;;;16.60;98.30;;;;;;5114054;28;20097;-63
2023/05/02 11:34:15;;;;;;;8.88;2.38;;;16.40;98.60;;;;;;5113454;28;20035;-62
2023/05/02 11:36:42;;;;;;;9.93;2.03;;;16.40;98.60;;;;;;5113828;28;20044;-64
2023/05/02 11:39:08;;;;;;;8.77;1.90;;;16.50;99.00;;;;;;5113447;28;20127;-62
2023/05/02 11:41:35;;;;;;;9.00;2.03;;;16.60;98.40;;;;;;5113488;28;20079;-62
2023/05/02 11:44:02;;;;;;;9.18;2.10;;;16.60;98.50;;;;;;5113871;28;20047;-62
2023/05/02 11:46:29;;;;;;;11.07;2.85;;;16.80;97.80;;;;;;5113528;28;20040;-63
2023/05/02 11:48:56;;;;;;;7.75;2.25;;;16.80;98.20;;;;;;5113511;28;20044;-62
2023/05/02 11:51:22;;;;;;;11.07;2.45;;;16.90;98.30;;;;;;5113653;28;20421;-61
2023/05/02 11:53:50;;;;;;;7.57;1.90;;;17.10;97.60;;;;;;5113597;28;20092;-63
2023/05/02 11:56:16;;;;;;;8.50;2.10;;;17.00;97.90;;;;;;5117070;28;20048;-62
2023/05/02 11:58:45;;;;;;;9.88;2.03;;;17.20;97.40;;;;;;5117434;28;20055;-62
2023/05/02 12:01:13;;;;;;;8.93;2.30;;;17.20;97.00;;;;;;5116616;28;20043;-62
2023/05/02 12:03:39;;;;;;;6.60;1.92;;;17.40;97.10;;;;;;5116835;28;20397;-62
2023/05/02 12:06:08;;;;;;;9.35;2.45;;;17.60;96.90;;;;;;5115648;28;20081;-62
2023/05/02 12:08:35;;;;;;;6.93;2.00;;;17.70;96.00;;;;;;5117512;28;20031;-62
2023/05/02 12:11:02;;;;;;;9.00;2.10;;;17.60;96.10;;;;;;5116665;28;20506;-59
2023/05/02 12:13:28;;;;;;;8.90;2.05;;;17.60;96.00;;;;;;5117242;28;20467;-62
2023/05/02 12:15:55;;;;;;;8.73;2.15;;;17.70;95.90;;;;;;5116768;28;20043;-61
2023/05/02 12:18:22;;;;;;;10.52;2.25;;;17.70;95.70;;;;;;5116980;28;20126;-63
2023/05/02 12:20:50;;;;;;;7.47;1.75;;;17.80;96.00;;;;;;5117098;28;20063;-62
2023/05/02 12:23:17;;;;;;;12.77;2.40;;;17.90;95.30;;;;;;5117004;27;20039;-62
2023/05/02 12:25:44;;;;;;;6.95;2.20;;;17.60;95.40;;;;;;5117086;28;20039;-62
2023/05/02 12:28:11;;;;;;;6.93;2.00;;;17.50;95.70;;;;;;5116821;28;20066;-62
2023/05/02 12:30:37;;;;;;;8.65;2.08;;;17.40;95.70;;;;;;5116410;28;20047;-62
2023/05/02 12:33:05;;;;;;;7.15;2.20;;;17.40;95.70;;;;;;5116648;28;20520;-63
2023/05/02 12:35:32;;;;;;;8.05;2.20;;;17.50;96.10;;;;;;5116403;28;20043;-63
2023/05/02 12:37:58;;;;;;;8.45;2.63;;;17.40;95.80;;;;;;5116122;28;20043;-62
2023/05/02 12:40:25;;;;;;;8.10;2.53;;;17.50;96.10;;;;;;5116200;28;20096;-63